sensor_id;sensor_type;location;lat;lon;timestamp;P1;P4;P2;P0;N10;N4;N25;N1;N05;TS
78570;SPS30;67861;51.966;5.672;2023-12-20T00:00:05;3.8;3.7;3.6;3.2;;;;2.0;6.0;
78570;SPS30;67861;51.966;5.672;2023-12-20T00:02:34;3.6;3.5;3.4;3.0;;;;2.0;6.0;
78570;SPS30;67861;51.966;5.672;2023-12-20T00:05:02;4.1;4.0;3.7;3.2;;;;2.0;5.0;
78570;SPS30;67861;51.966;5.672;2023-12-20T00:07:31;3.4;3.3;3.1;2.7;;;;2.0;5.0;
78570;SPS30;67861;51.966;5.672;2023-12-20T00:10:00;3.6;3.5;3.3;2.8;;;;2.0;5.0;
78570;SPS30;67861;51.966;5.672;2023-12-20T00:12:28;3.9;3.8;3.5;3.0;;;;2.0;5.0;
78570;SPS30;67861;51.966;5.672;2023-12-20T00:14:57;3.8;3.6;3.4;2.9;;;;3.0;4.0;
78570;SPS30;67861;51.966;5.672;2023-12-20T00:17:25;3.9;3.8;3.5;3.0;;;;3.0;4.0;
78570;SPS30;67861;51.966;5.672;2023-12-20T00:19:54;4.2;4.1;3.7;3.1;;;;3.0;4.0;
78570;SPS30;67861;51.966;5.672;2023-12-20T00:22:22;3.9;3.8;3.4;2.9;;;;3.0;4.0;
78570;SPS30;67861;51.966;5.672;2023-12-20T00:24:51;4.4;4.2;3.7;3.0;;;;3.0;3.0;
78570;SPS30;67861;51.966;5.672;2023-12-20T00:27:19;3.8;3.6;3.2;2.5;;;;3.0;4.0;
78570;SPS30;67861;51.966;5.672;2023-12-20T00:29:48;4.0;3.8;3.4;2.7;;;;3.0;4.0;
78570;SPS30;67861;51.966;5.672;2023-12-20T00:32:16;4.3;4.0;3.5;2.8;;;;3.0;4.0;
78570;SPS30;67861;51.966;5.672;2023-12-20T00:34:45;4.7;4.4;3.9;3.1;;;;3.0;4.0;
78570;SPS30;67861;51.966;5.672;2023-12-20T00:37:14;4.0;3.8;3.3;2.7;;;;3.0;4.0;
78570;SPS30;67861;51.966;5.672;2023-12-20T00:39:42;4.4;4.2;3.7;3.1;;;;3.0;5.0;
78570;SPS30;67861;51.966;5.672;2023-12-20T00:42:12;5.0;4.7;4.3;3.6;;;;3.0;5.0;
78570;SPS30;67861;51.966;5.672;2023-12-20T00:44:41;5.0;4.8;4.3;3.6;;;;3.0;6.0;
78570;SPS30;67861;51.966;5.672;2023-12-20T00:47:09;3.6;3.5;3.2;2.7;;;;3.0;6.0;
78570;SPS30;67861;51.966;5.672;2023-12-20T00:49:39;3.6;3.5;3.2;2.8;;;;3.0;7.0;
78570;SPS30;67861;51.966;5.672;2023-12-20T00:52:07;4.5;4.3;4.0;3.3;;;;3.0;8.0;
78570;SPS30;67861;51.966;5.672;2023-12-20T00:54:38;4.5;4.3;4.0;3.4;;;;3.0;8.0;
78570;SPS30;67861;51.966;5.672;2023-12-20T00:57:06;4.4;4.3;3.9;3.3;;;;3.0;9.0;
78570;SPS30;67861;51.966;5.672;2023-12-20T00:59:35;4.0;3.9;3.5;2.9;;;;3.0;9.0;
78570;SPS30;67861;51.966;5.672;2023-12-20T01:02:03;4.7;4.5;4.1;3.4;;;;3.0;9.0;
78570;SPS30;67861;51.966;5.672;2023-12-20T01:04:35;4.0;3.8;3.3;2.6;;;;3.0;8.0;
78570;SPS30;67861;51.966;5.672;2023-12-20T01:07:03;4.2;4.0;3.6;2.9;;;;3.0;8.0;
78570;SPS30;67861;51.966;5.672;2023-12-20T01:09:32;5.8;5.4;4.6;3.4;;;;3.0;8.0;
78570;SPS30;67861;51.966;5.672;2023-12-20T01:12:00;4.5;4.2;3.7;2.8;;;;3.0;7.0;
78570;SPS30;67861;51.966;5.672;2023-12-20T01:14:29;4.0;3.8;3.3;2.6;;;;3.0;7.0;
78570;SPS30;67861;51.966;5.672;2023-12-20T01:16:57;5.1;4.8;4.3;3.5;;;;3.0;7.0;
78570;SPS30;67861;51.966;5.672;2023-12-20T01:19:26;4.1;3.9;3.6;3.0;;;;3.0;7.0;
78570;SPS30;67861;51.966;5.672;2023-12-20T01:21:55;4.1;3.9;3.5;2.9;;;;3.0;7.0;
78570;SPS30;67861;51.966;5.672;2023-12-20T01:24:24;4.1;3.9;3.5;2.9;;;;3.0;9.0;
78570;SPS30;67861;51.966;5.672;2023-12-20T01:26:54;3.5;3.3;3.0;2.4;;;;3.0;9.0;
78570;SPS30;67861;51.966;5.672;2023-12-20T01:29:23;4.8;4.5;4.0;3.3;;;;3.0;9.0;
78570;SPS30;67861;51.966;5.672;2023-12-20T01:31:53;4.2;4.0;3.6;3.0;;;;3.0;9.0;
78570;SPS30;67861;51.966;5.672;2023-12-20T01:34:21;3.1;2.9;2.6;2.2;;;;3.0;9.0;
78570;SPS30;67861;51.966;5.672;2023-12-20T01:36:50;4.2;4.0;3.6;3.0;;;;3.0;9.0;
78570;SPS30;67861;51.966;5.672;2023-12-20T01:39:18;4.1;3.9;3.5;2.8;;;;3.0;9.0;
78570;SPS30;67861;51.966;5.672;2023-12-20T01:41:47;3.4;3.2;2.8;2.2;;;;3.0;9.0;
78570;SPS30;67861;51.966;5.672;2023-12-20T01:44:15;4.1;3.8;3.2;2.4;;;;3.0;9.0;
78570;SPS30;67861;51.966;5.672;2023-12-20T01:46:44;3.8;3.5;2.9;2.2;;;;3.0;8.0;
78570;SPS30;67861;51.966;5.672;2023-12-20T01:49:13;4.0;3.7;3.2;2.3;;;;3.0;8.0;
78570;SPS30;67861;51.966;5.672;2023-12-20T01:51:42;4.5;4.2;3.5;2.6;;;;3.0;8.0;
78570;SPS30;67861;51.966;5.672;2023-12-20T01:54:12;5.2;4.9;4.1;2.9;;;;3.0;8.0;
78570;SPS30;67861;51.966;5.672;2023-12-20T01:56:40;5.1;4.7;3.9;2.7;;;;3.0;8.0;
78570;SPS30;67861;51.966;5.672;2023-12-20T01:59:10;4.7;4.4;3.8;2.8;;;;3.0;8.0;
78570;SPS30;67861;51.966;5.672;2023-12-20T02:01:40;4.1;3.8;3.2;2.4;;;;3.0;9.0;
78570;SPS30;67861;51.966;5.672;2023-12-20T02:04:10;5.5;5.0;4.2;3.0;;;;3.0;10.0;
78570;SPS30;67861;51.966;5.672;2023-12-20T02:06:39;5.9;5.4;4.4;3.0;;;;3.0;11.0;
78570;SPS30;67861;51.966;5.672;2023-12-20T02:09:08;5.2;4.8;3.9;2.6;;;;3.0;13.0;
78570;SPS30;67861;51.966;5.672;2023-12-20T02:11:37;5.1;4.7;3.9;2.7;;;;3.0;15.0;
78570;SPS30;67861;51.966;5.672;2023-12-20T02:14:06;4.7;4.3;3.6;2.5;;;;3.0;16.0;
78570;SPS30;67861;51.966;5.672;2023-12-20T02:16:36;5.4;5.0;4.0;2.7;;;;3.0;17.0;
78570;SPS30;67861;51.966;5.672;2023-12-20T02:19:05;5.3;4.9;3.9;2.6;;;;3.0;17.0;
78570;SPS30;67861;51.966;5.672;2023-12-20T02:21:41;4.7;4.3;3.5;2.4;;;;3.0;17.0;
78570;SPS30;67861;51.966;5.672;2023-12-20T02:24:10;4.9;4.5;3.6;2.5;;;;3.0;16.0;
78570;SPS30;67861;51.966;5.672;2023-12-20T02:26:38;5.3;4.9;4.0;2.8;;;;3.0;17.0;
78570;SPS30;67861;51.966;5.672;2023-12-20T02:29:07;5.3;4.8;3.9;2.7;;;;3.0;17.0;
78570;SPS30;67861;51.966;5.672;2023-12-20T02:31:38;5.6;5.1;4.2;2.9;;;;3.0;17.0;
78570;SPS30;67861;51.966;5.672;2023-12-20T02:34:07;5.1;4.8;3.9;2.8;;;;3.0;17.0;
78570;SPS30;67861;51.966;5.672;2023-12-20T02:36:37;5.2;4.8;3.9;2.6;;;;3.0;17.0;
78570;SPS30;67861;51.966;5.672;2023-12-20T02:39:05;5.9;5.4;4.3;2.9;;;;3.0;17.0;
78570;SPS30;67861;51.966;5.672;2023-12-20T02:41:34;5.4;5.0;4.1;2.8;;;;3.0;17.0;
78570;SPS30;67861;51.966;5.672;2023-12-20T02:44:03;6.8;6.2;5.0;3.4;;;;3.0;18.0;
78570;SPS30;67861;51.966;5.672;2023-12-20T02:46:32;4.9;4.5;3.7;2.6;;;;3.0;19.0;
78570;SPS30;67861;51.966;5.672;2023-12-20T02:49:00;5.9;5.4;4.4;2.9;;;;3.0;20.0;
78570;SPS30;67861;51.966;5.672;2023-12-20T02:51:29;5.0;4.6;3.8;2.6;;;;3.0;22.0;
78570;SPS30;67861;51.966;5.672;2023-12-20T02:53:57;5.4;5.0;4.1;2.8;;;;3.0;23.0;
78570;SPS30;67861;51.966;5.672;2023-12-20T02:56:26;4.5;4.1;3.4;2.4;;;;3.0;25.0;
78570;SPS30;67861;51.966;5.672;2023-12-20T02:58:54;5.8;5.4;4.4;3.2;;;;3.0;26.0;
78570;SPS30;67861;51.966;5.672;2023-12-20T03:01:23;5.1;4.7;3.9;2.7;;;;3.0;26.0;
78570;SPS30;67861;51.966;5.672;2023-12-20T03:03:51;4.9;4.5;3.6;2.5;;;;3.0;26.0;
78570;SPS30;67861;51.966;5.672;2023-12-20T03:06:20;6.4;5.9;4.8;3.3;;;;3.0;26.0;
78570;SPS30;67861;51.966;5.672;2023-12-20T03:08:48;5.6;5.2;4.3;3.0;;;;3.0;27.0;
78570;SPS30;67861;51.966;5.672;2023-12-20T03:11:17;6.0;5.5;4.5;3.2;;;;3.0;26.0;
78570;SPS30;67861;51.966;5.672;2023-12-20T03:13:45;5.7;5.3;4.3;2.9;;;;3.0;24.0;
78570;SPS30;67861;51.966;5.672;2023-12-20T03:16:14;7.0;6.4;5.1;3.5;;;;3.0;21.0;
78570;SPS30;67861;51.966;5.672;2023-12-20T03:18:43;7.2;6.6;5.3;3.5;;;;3.0;20.0;
78570;SPS30;67861;51.966;5.672;2023-12-20T03:21:11;5.6;5.2;4.2;2.9;;;;3.0;20.0;
78570;SPS30;67861;51.966;5.672;2023-12-20T03:23:40;5.8;5.3;4.4;3.2;;;;3.0;21.0;
78570;SPS30;67861;51.966;5.672;2023-12-20T03:26:09;6.0;5.6;4.5;3.1;;;;3.0;20.0;
78570;SPS30;67861;51.966;5.672;2023-12-20T03:28:38;6.3;5.8;4.8;3.4;;;;3.0;20.0;
78570;SPS30;67861;51.966;5.672;2023-12-20T03:31:06;6.7;6.2;5.1;3.6;;;;3.0;20.0;
78570;SPS30;67861;51.966;5.672;2023-12-20T03:33:35;5.7;5.3;4.6;3.5;;;;3.0;20.0;
78570;SPS30;67861;51.966;5.672;2023-12-20T03:36:03;5.3;5.0;4.4;3.4;;;;3.0;21.0;
78570;SPS30;67861;51.966;5.672;2023-12-20T03:38:32;6.0;5.5;4.6;3.3;;;;3.0;21.0;
78570;SPS30;67861;51.966;5.672;2023-12-20T03:41:01;5.8;5.4;4.6;3.4;;;;3.0;22.0;
78570;SPS30;67861;51.966;5.672;2023-12-20T03:43:29;5.9;5.4;4.5;3.2;;;;3.0;23.0;
78570;SPS30;67861;51.966;5.672;2023-12-20T03:45:58;5.6;5.2;4.2;3.0;;;;3.0;24.0;
78570;SPS30;67861;51.966;5.672;2023-12-20T03:48:26;6.6;6.1;5.0;3.4;;;;3.0;26.0;
78570;SPS30;67861;51.966;5.672;2023-12-20T03:50:55;7.1;6.5;5.2;3.4;;;;3.0;26.0;
78570;SPS30;67861;51.966;5.672;2023-12-20T03:53:24;6.7;6.1;4.9;3.3;;;;3.0;26.0;
78570;SPS30;67861;51.966;5.672;2023-12-20T03:55:53;7.6;6.9;5.6;3.7;;;;3.0;25.0;
78570;SPS30;67861;51.966;5.672;2023-12-20T03:58:21;6.5;5.9;4.7;3.1;;;;3.0;23.0;
78570;SPS30;67861;51.966;5.672;2023-12-20T04:00:50;7.7;7.0;5.6;3.6;;;;3.0;23.0;
78570;SPS30;67861;51.966;5.672;2023-12-20T04:03:18;6.7;6.1;4.9;3.3;;;;3.0;23.0;
78570;SPS30;67861;51.966;5.672;2023-12-20T04:05:47;6.3;5.8;4.8;3.3;;;;3.0;23.0;
78570;SPS30;67861;51.966;5.672;2023-12-20T04:08:15;6.4;5.9;4.9;3.5;;;;3.0;23.0;
78570;SPS30;67861;51.966;5.672;2023-12-20T04:10:46;6.2;5.8;4.8;3.4;;;;3.0;24.0;
78570;SPS30;67861;51.966;5.672;2023-12-20T04:13:14;7.3;6.7;5.3;3.6;;;;3.0;24.0;
78570;SPS30;67861;51.966;5.672;2023-12-20T04:15:43;6.2;5.7;4.7;3.3;;;;3.0;23.0;
78570;SPS30;67861;51.966;5.672;2023-12-20T04:18:11;5.8;5.4;4.4;3.1;;;;3.0;22.0;
78570;SPS30;67861;51.966;5.672;2023-12-20T04:20:40;5.5;5.1;4.3;3.1;;;;3.0;20.0;
78570;SPS30;67861;51.966;5.672;2023-12-20T04:23:08;7.0;6.4;5.1;3.4;;;;3.0;18.0;
78570;SPS30;67861;51.966;5.672;2023-12-20T04:25:36;6.9;6.4;5.2;3.6;;;;3.0;16.0;
78570;SPS30;67861;51.966;5.672;2023-12-20T04:28:05;7.1;6.5;5.2;3.5;;;;3.0;14.0;
78570;SPS30;67861;51.966;5.672;2023-12-20T04:30:33;6.8;6.2;4.8;3.0;;;;3.0;13.0;
78570;SPS30;67861;51.966;5.672;2023-12-20T04:33:02;7.4;6.7;5.1;3.0;;;;3.0;13.0;
78570;SPS30;67861;51.966;5.672;2023-12-20T04:35:31;8.4;7.6;5.8;3.5;;;;3.0;12.0;
78570;SPS30;67861;51.966;5.672;2023-12-20T04:37:59;6.9;6.2;4.9;3.0;;;;3.0;12.0;
78570;SPS30;67861;51.966;5.672;2023-12-20T04:40:28;6.4;5.8;4.7;3.1;;;;3.0;12.0;
78570;SPS30;67861;51.966;5.672;2023-12-20T04:42:56;7.3;6.6;5.2;3.4;;;;3.0;13.0;
78570;SPS30;67861;51.966;5.672;2023-12-20T04:45:24;7.9;7.2;5.5;3.4;;;;3.0;13.0;
78570;SPS30;67861;51.966;5.672;2023-12-20T04:47:53;8.5;7.8;6.1;3.9;;;;3.0;14.0;
78570;SPS30;67861;51.966;5.672;2023-12-20T04:50:21;8.1;7.3;5.7;3.6;;;;3.0;14.0;
78570;SPS30;67861;51.966;5.672;2023-12-20T04:52:50;7.9;7.1;5.5;3.4;;;;3.0;15.0;
78570;SPS30;67861;51.966;5.672;2023-12-20T04:55:19;7.4;6.7;5.1;3.1;;;;3.0;15.0;
78570;SPS30;67861;51.966;5.672;2023-12-20T04:57:49;7.1;6.4;4.9;2.9;;;;3.0;15.0;
78570;SPS30;67861;51.966;5.672;2023-12-20T05:00:18;7.8;7.0;5.4;3.2;;;;3.0;15.0;
78570;SPS30;67861;51.966;5.672;2023-12-20T05:02:46;7.6;6.8;5.2;3.1;;;;3.0;14.0;
78570;SPS30;67861;51.966;5.672;2023-12-20T05:05:15;6.7;6.0;4.6;2.7;;;;3.0;13.0;
78570;SPS30;67861;51.966;5.672;2023-12-20T05:07:44;7.4;6.7;5.1;3.1;;;;3.0;13.0;
78570;SPS30;67861;51.966;5.672;2023-12-20T05:10:12;6.6;6.0;4.6;2.9;;;;3.0;13.0;
78570;SPS30;67861;51.966;5.672;2023-12-20T05:12:41;7.3;6.6;5.0;3.0;;;;3.0;12.0;
78570;SPS30;67861;51.966;5.672;2023-12-20T05:15:09;8.0;7.1;5.4;3.2;;;;3.0;12.0;
78570;SPS30;67861;51.966;5.672;2023-12-20T05:17:38;8.1;7.4;5.7;3.5;;;;3.0;11.0;
78570;SPS30;67861;51.966;5.672;2023-12-20T05:20:07;7.7;7.0;5.4;3.2;;;;3.0;12.0;
78570;SPS30;67861;51.966;5.672;2023-12-20T05:22:38;6.5;5.9;4.5;2.8;;;;3.0;11.0;
78570;SPS30;67861;51.966;5.672;2023-12-20T05:25:07;7.1;6.5;5.0;3.1;;;;3.0;11.0;
78570;SPS30;67861;51.966;5.672;2023-12-20T05:27:36;6.9;6.2;4.8;2.9;;;;3.0;10.0;
78570;SPS30;67861;51.966;5.672;2023-12-20T05:30:05;6.2;5.6;4.4;2.8;;;;3.0;11.0;
78570;SPS30;67861;51.966;5.672;2023-12-20T05:32:33;7.3;6.6;5.2;3.3;;;;3.0;12.0;
78570;SPS30;67861;51.966;5.672;2023-12-20T05:35:02;7.1;6.5;5.2;3.4;;;;3.0;12.0;
78570;SPS30;67861;51.966;5.672;2023-12-20T05:37:31;7.0;6.4;5.0;3.2;;;;3.0;13.0;
78570;SPS30;67861;51.966;5.672;2023-12-20T05:39:59;6.4;5.8;4.5;2.9;;;;3.0;14.0;
78570;SPS30;67861;51.966;5.672;2023-12-20T05:42:28;7.3;6.6;5.1;3.1;;;;3.0;16.0;
78570;SPS30;67861;51.966;5.672;2023-12-20T05:44:57;8.0;7.2;5.5;3.3;;;;3.0;17.0;
78570;SPS30;67861;51.966;5.672;2023-12-20T05:47:25;7.8;7.0;5.4;3.3;;;;3.0;17.0;
78570;SPS30;67861;51.966;5.672;2023-12-20T05:49:54;6.2;5.6;4.5;3.0;;;;3.0;17.0;
78570;SPS30;67861;51.966;5.672;2023-12-20T05:52:22;6.3;5.7;4.6;3.0;;;;3.0;17.0;
78570;SPS30;67861;51.966;5.672;2023-12-20T05:54:51;6.9;6.3;5.1;3.4;;;;3.0;16.0;
78570;SPS30;67861;51.966;5.672;2023-12-20T05:57:20;7.2;6.5;5.1;3.1;;;;3.0;16.0;
78570;SPS30;67861;51.966;5.672;2023-12-20T05:59:49;7.4;6.7;5.1;3.0;;;;3.0;16.0;
78570;SPS30;67861;51.966;5.672;2023-12-20T06:02:18;7.7;6.9;5.3;3.1;;;;3.0;16.0;
78570;SPS30;67861;51.966;5.672;2023-12-20T06:04:46;8.1;7.3;5.6;3.3;;;;3.0;16.0;
78570;SPS30;67861;51.966;5.672;2023-12-20T06:07:16;8.5;7.7;5.9;3.5;;;;3.0;16.0;
78570;SPS30;67861;51.966;5.672;2023-12-20T06:09:45;7.3;6.5;5.0;3.1;;;;3.0;17.0;
78570;SPS30;67861;51.966;5.672;2023-12-20T06:12:13;8.0;7.2;5.5;3.3;;;;3.0;18.0;
78570;SPS30;67861;51.966;5.672;2023-12-20T06:14:42;9.0;8.1;6.2;3.7;;;;3.0;19.0;
78570;SPS30;67861;51.966;5.672;2023-12-20T06:17:10;8.2;7.4;5.8;3.6;;;;3.0;20.0;
78570;SPS30;67861;51.966;5.672;2023-12-20T06:19:38;6.8;6.1;4.7;2.9;;;;3.0;20.0;
78570;SPS30;67861;51.966;5.672;2023-12-20T06:22:08;7.6;6.9;5.3;3.3;;;;3.0;22.0;
78570;SPS30;67861;51.966;5.672;2023-12-20T06:24:37;7.2;6.5;5.1;3.2;;;;3.0;22.0;
78570;SPS30;67861;51.966;5.672;2023-12-20T06:27:05;8.1;7.3;5.7;3.5;;;;3.0;22.0;
78570;SPS30;67861;51.966;5.672;2023-12-20T06:29:34;7.1;6.5;5.0;3.2;;;;3.0;22.0;
78570;SPS30;67861;51.966;5.672;2023-12-20T06:32:02;8.0;7.3;5.8;3.8;;;;3.0;21.0;
78570;SPS30;67861;51.966;5.672;2023-12-20T06:34:31;7.3;6.6;5.1;3.2;;;;3.0;22.0;
78570;SPS30;67861;51.966;5.672;2023-12-20T06:37:00;7.3;6.7;5.3;3.4;;;;3.0;24.0;
78570;SPS30;67861;51.966;5.672;2023-12-20T06:39:28;8.0;7.3;5.8;3.8;;;;3.0;28.0;
78570;SPS30;67861;51.966;5.672;2023-12-20T06:41:56;9.9;9.1;7.5;5.2;;;;3.0;30.0;
78570;SPS30;67861;51.966;5.672;2023-12-20T06:44:25;6.6;6.1;5.0;3.4;;;;3.0;32.0;
78570;SPS30;67861;51.966;5.672;2023-12-20T06:46:53;8.5;7.9;6.5;4.6;;;;3.0;36.0;
78570;SPS30;67861;51.966;5.672;2023-12-20T06:49:22;6.6;6.1;5.1;3.8;;;;3.0;46.0;
78570;SPS30;67861;51.966;5.672;2023-12-20T06:51:50;9.6;9.0;7.7;5.9;;;;3.0;65.0;
78570;SPS30;67861;51.966;5.672;2023-12-20T06:54:19;7.6;7.0;5.9;4.3;;;;3.0;81.0;
78570;SPS30;67861;51.966;5.672;2023-12-20T06:56:47;7.5;7.0;6.0;4.5;;;;3.0;102.0;
78570;SPS30;67861;51.966;5.672;2023-12-20T06:59:16;6.3;5.8;4.9;3.5;;;;2.0;94.0;
78570;SPS30;67861;51.966;5.672;2023-12-20T07:01:48;7.5;6.9;5.6;3.9;;;;2.0;98.0;
78570;SPS30;67861;51.966;5.672;2023-12-20T07:04:17;7.3;6.7;5.5;3.8;;;;2.0;105.0;
78570;SPS30;67861;51.966;5.672;2023-12-20T07:06:48;8.5;7.8;6.4;4.5;;;;2.0;102.0;
78570;SPS30;67861;51.966;5.672;2023-12-20T07:09:18;7.0;6.4;5.2;3.6;;;;2.0;99.0;
78570;SPS30;67861;51.966;5.672;2023-12-20T07:11:48;6.7;6.2;5.0;3.4;;;;2.0;98.0;
78570;SPS30;67861;51.966;5.672;2023-12-20T07:14:16;7.3;6.7;5.6;4.0;;;;2.0;102.0;
78570;SPS30;67861;51.966;5.672;2023-12-20T07:16:45;6.3;5.8;4.8;3.4;;;;2.0;101.0;
78570;SPS30;67861;51.966;5.672;2023-12-20T07:19:13;7.0;6.4;5.1;3.4;;;;2.0;100.0;
78570;SPS30;67861;51.966;5.672;2023-12-20T07:21:42;7.6;6.9;5.5;3.6;;;;2.0;100.0;
78570;SPS30;67861;51.966;5.672;2023-12-20T07:24:10;7.8;7.1;5.7;3.7;;;;2.0;97.0;
78570;SPS30;67861;51.966;5.672;2023-12-20T07:26:39;6.3;5.8;4.7;3.2;;;;2.0;93.0;
78570;SPS30;67861;51.966;5.672;2023-12-20T07:29:09;7.0;6.4;5.2;3.6;;;;2.0;91.0;
78570;SPS30;67861;51.966;5.672;2023-12-20T07:31:37;6.7;6.2;5.1;3.6;;;;2.0;87.0;
78570;SPS30;67861;51.966;5.672;2023-12-20T07:34:06;7.9;7.3;5.9;4.1;;;;2.0;87.0;
78570;SPS30;67861;51.966;5.672;2023-12-20T07:36:36;5.4;5.0;4.1;2.9;;;;2.0;83.0;
78570;SPS30;67861;51.966;5.672;2023-12-20T07:39:05;6.4;5.9;4.8;3.3;;;;2.0;92.0;
78570;SPS30;67861;51.966;5.672;2023-12-20T07:41:33;6.5;6.0;4.9;3.4;;;;2.0;98.0;
78570;SPS30;67861;51.966;5.672;2023-12-20T07:44:02;8.3;7.5;6.0;3.9;;;;2.0;100.0;
78570;SPS30;67861;51.966;5.672;2023-12-20T07:46:32;6.4;5.9;4.7;3.1;;;;2.0;104.0;
78570;SPS30;67861;51.966;5.672;2023-12-20T07:49:01;6.6;6.1;5.0;3.4;;;;2.0;105.0;
78570;SPS30;67861;51.966;5.672;2023-12-20T07:51:30;7.0;6.3;4.9;3.1;;;;2.0;104.0;
78570;SPS30;67861;51.966;5.672;2023-12-20T07:53:58;6.6;6.0;4.7;3.0;;;;2.0;108.0;
78570;SPS30;67861;51.966;5.672;2023-12-20T07:56:26;10.0;9.2;7.4;5.0;;;;2.0;109.0;
78570;SPS30;67861;51.966;5.672;2023-12-20T07:58:55;7.4;6.8;5.7;4.1;;;;2.0;110.0;
78570;SPS30;67861;51.966;5.672;2023-12-20T08:01:23;7.2;6.6;5.3;3.6;;;;2.0;113.0;
78570;SPS30;67861;51.966;5.672;2023-12-20T08:03:52;9.9;9.1;7.3;5.0;;;;2.0;110.0;
78570;SPS30;67861;51.966;5.672;2023-12-20T08:06:20;6.6;6.0;4.8;3.2;;;;2.0;124.0;
78570;SPS30;67861;51.966;5.672;2023-12-20T08:08:49;8.5;7.8;6.3;4.4;;;;2.0;128.0;
78570;SPS30;67861;51.966;5.672;2023-12-20T08:11:18;11.0;10.2;8.3;5.8;;;;2.0;123.0;
78570;SPS30;67861;51.966;5.672;2023-12-20T08:13:46;7.4;6.8;5.6;3.9;;;;2.0;110.0;
78570;SPS30;67861;51.966;5.672;2023-12-20T08:16:15;6.4;5.9;4.7;3.2;;;;2.0;99.0;
78570;SPS30;67861;51.966;5.672;2023-12-20T08:18:43;7.3;6.7;5.4;3.6;;;;2.0;100.0;
78570;SPS30;67861;51.966;5.672;2023-12-20T08:21:12;7.8;7.2;5.7;3.8;;;;2.0;99.0;
78570;SPS30;67861;51.966;5.672;2023-12-20T08:23:40;6.2;5.7;4.6;3.2;;;;2.0;98.0;
78570;SPS30;67861;51.966;5.672;2023-12-20T08:26:09;6.6;6.0;4.8;3.1;;;;2.0;102.0;
78570;SPS30;67861;51.966;5.672;2023-12-20T08:28:38;8.7;7.9;6.2;3.9;;;;2.0;94.0;
78570;SPS30;67861;51.966;5.672;2023-12-20T08:31:06;8.1;7.4;5.8;3.7;;;;2.0;87.0;
78570;SPS30;67861;51.966;5.672;2023-12-20T08:33:44;6.8;6.2;4.9;3.1;;;;2.0;87.0;
78570;SPS30;67861;51.966;5.672;2023-12-20T08:36:14;8.1;7.4;5.9;3.9;;;;2.0;81.0;
78570;SPS30;67861;51.966;5.672;2023-12-20T08:38:44;7.4;6.7;5.4;3.6;;;;2.0;80.0;
78570;SPS30;67861;51.966;5.672;2023-12-20T08:41:15;6.8;6.2;4.9;3.2;;;;2.0;83.0;
78570;SPS30;67861;51.966;5.672;2023-12-20T08:43:46;7.6;6.8;5.4;3.4;;;;2.0;83.0;
78570;SPS30;67861;51.966;5.672;2023-12-20T08:46:15;7.3;6.6;5.2;3.3;;;;2.0;84.0;
78570;SPS30;67861;51.966;5.672;2023-12-20T08:48:43;6.6;6.0;4.8;3.1;;;;2.0;84.0;
78570;SPS30;67861;51.966;5.672;2023-12-20T08:51:12;8.0;7.3;5.8;3.7;;;;2.0;84.0;
78570;SPS30;67861;51.966;5.672;2023-12-20T08:53:41;8.0;7.3;5.8;3.8;;;;2.0;86.0;
78570;SPS30;67861;51.966;5.672;2023-12-20T08:56:11;6.1;5.6;4.5;3.0;;;;2.0;86.0;
78570;SPS30;67861;51.966;5.672;2023-12-20T08:58:40;6.9;6.3;5.0;3.2;;;;2.0;87.0;
78570;SPS30;67861;51.966;5.672;2023-12-20T09:01:08;7.4;6.8;5.3;3.4;;;;2.0;84.0;
78570;SPS30;67861;51.966;5.672;2023-12-20T09:03:37;8.2;7.4;5.7;3.5;;;;2.0;83.0;
78570;SPS30;67861;51.966;5.672;2023-12-20T09:06:05;7.5;6.8;5.3;3.3;;;;2.0;79.0;
78570;SPS30;67861;51.966;5.672;2023-12-20T09:08:34;6.8;6.2;4.9;3.1;;;;2.0;79.0;
78570;SPS30;67861;51.966;5.672;2023-12-20T09:11:02;8.1;7.3;5.6;3.4;;;;2.0;82.0;
78570;SPS30;67861;51.966;5.672;2023-12-20T09:13:31;8.2;7.4;5.7;3.4;;;;2.0;110.0;
78570;SPS30;67861;51.966;5.672;2023-12-20T09:15:59;7.4;6.7;5.2;3.3;;;;2.0;100.0;
78570;SPS30;67861;51.966;5.672;2023-12-20T09:18:28;6.5;5.9;4.7;3.0;;;;2.0;97.0;
78570;SPS30;67861;51.966;5.672;2023-12-20T09:20:59;8.5;7.7;6.1;3.9;;;;2.0;93.0;
78570;SPS30;67861;51.966;5.672;2023-12-20T09:23:28;7.7;7.0;5.5;3.5;;;;2.0;94.0;
78570;SPS30;67861;51.966;5.672;2023-12-20T09:25:56;8.0;7.3;5.7;3.7;;;;2.0;101.0;
78570;SPS30;67861;51.966;5.672;2023-12-20T09:28:25;7.7;6.9;5.4;3.4;;;;2.0;105.0;
78570;SPS30;67861;51.966;5.672;2023-12-20T09:30:53;7.2;6.5;5.1;3.2;;;;2.0;108.0;
78570;SPS30;67861;51.966;5.672;2023-12-20T09:33:22;6.1;5.5;4.4;2.8;;;;2.0;109.0;
78570;SPS30;67861;51.966;5.672;2023-12-20T09:35:51;8.4;7.6;6.0;3.8;;;;2.0;106.0;
78570;SPS30;67861;51.966;5.672;2023-12-20T09:38:19;8.2;7.4;5.8;3.8;;;;2.0;98.0;
78570;SPS30;67861;51.966;5.672;2023-12-20T09:40:48;7.6;6.9;5.5;3.5;;;;2.0;97.0;
78570;SPS30;67861;51.966;5.672;2023-12-20T09:43:19;6.0;5.5;4.4;2.9;;;;2.0;104.0;
78570;SPS30;67861;51.966;5.672;2023-12-20T09:45:48;8.3;7.5;5.8;3.7;;;;2.0;107.0;
78570;SPS30;67861;51.966;5.672;2023-12-20T09:48:21;7.8;7.1;5.6;3.6;;;;2.0;107.0;
78570;SPS30;67861;51.966;5.672;2023-12-20T09:50:49;7.0;6.4;5.0;3.2;;;;2.0;111.0;
78570;SPS30;67861;51.966;5.672;2023-12-20T09:53:20;7.3;6.7;5.2;3.3;;;;2.0;112.0;
78570;SPS30;67861;51.966;5.672;2023-12-20T09:55:55;7.7;6.9;5.3;3.2;;;;2.0;118.0;
78570;SPS30;67861;51.966;5.672;2023-12-20T09:58:27;8.0;7.3;5.7;3.6;;;;2.0;119.0;
78570;SPS30;67861;51.966;5.672;2023-12-20T10:00:56;8.4;7.6;5.9;3.6;;;;2.0;127.0;
78570;SPS30;67861;51.966;5.672;2023-12-20T10:03:25;6.7;6.1;4.7;2.8;;;;1.0;144.0;
78570;SPS30;67861;51.966;5.672;2023-12-20T10:05:54;7.4;6.7;5.2;3.3;;;;1.0;135.0;
78570;SPS30;67861;51.966;5.672;2023-12-20T10:08:26;5.8;5.3;4.1;2.6;;;;1.0;130.0;
78570;SPS30;67861;51.966;5.672;2023-12-20T10:10:56;7.7;7.0;5.4;3.3;;;;1.0;122.0;
78570;SPS30;67861;51.966;5.672;2023-12-20T10:13:28;7.4;6.6;5.1;3.1;;;;1.0;119.0;
78570;SPS30;67861;51.966;5.672;2023-12-20T10:15:59;8.3;7.5;5.7;3.5;;;;1.0;103.0;
78570;SPS30;67861;51.966;5.672;2023-12-20T10:18:30;7.5;6.7;5.1;3.1;;;;1.0;101.0;
78570;SPS30;67861;51.966;5.672;2023-12-20T10:20:58;8.6;7.7;5.9;3.4;;;;1.0;105.0;
78570;SPS30;67861;51.966;5.672;2023-12-20T10:23:29;9.1;8.1;6.1;3.4;;;;1.0;108.0;
78570;SPS30;67861;51.966;5.672;2023-12-20T10:25:58;8.0;7.2;5.5;3.2;;;;1.0;108.0;
78570;SPS30;67861;51.966;5.672;2023-12-20T10:28:28;7.9;7.2;5.5;3.4;;;;1.0;114.0;
78570;SPS30;67861;51.966;5.672;2023-12-20T10:31:01;8.1;7.3;5.6;3.3;;;;1.0;123.0;
78570;SPS30;67861;51.966;5.672;2023-12-20T10:33:30;7.9;7.1;5.4;3.2;;;;1.0;127.0;
78570;SPS30;67861;51.966;5.672;2023-12-20T10:36:00;7.8;7.0;5.5;3.4;;;;1.0;125.0;
78570;SPS30;67861;51.966;5.672;2023-12-20T10:38:31;7.1;6.4;5.0;3.2;;;;1.0;126.0;
78570;SPS30;67861;51.966;5.672;2023-12-20T10:40:59;7.7;7.0;5.4;3.4;;;;1.0;145.0;
78570;SPS30;67861;51.966;5.672;2023-12-20T10:43:31;7.1;6.4;5.0;3.1;;;;1.0;168.0;
78570;SPS30;67861;51.966;5.672;2023-12-20T10:46:01;6.9;6.2;4.9;3.1;;;;1.0;158.0;
78570;SPS30;67861;51.966;5.672;2023-12-20T10:48:31;7.2;6.5;5.0;3.0;;;;1.0;155.0;
78570;SPS30;67861;51.966;5.672;2023-12-20T10:51:00;6.1;5.6;4.4;2.8;;;;1.0;147.0;
78570;SPS30;67861;51.966;5.672;2023-12-20T10:53:32;7.7;7.0;5.4;3.3;;;;1.0;140.0;
78570;SPS30;67861;51.966;5.672;2023-12-20T10:56:04;8.1;7.3;5.6;3.4;;;;1.0;130.0;
78570;SPS30;67861;51.966;5.672;2023-12-20T10:58:34;7.4;6.7;5.2;3.2;;;;1.0;129.0;
78570;SPS30;67861;51.966;5.672;2023-12-20T11:01:10;5.8;5.3;4.1;2.6;;;;1.0;111.0;
78570;SPS30;67861;51.966;5.672;2023-12-20T11:03:43;7.7;7.0;5.4;3.3;;;;1.0;100.0;
78570;SPS30;67861;51.966;5.672;2023-12-20T11:06:18;7.9;7.2;5.5;3.3;;;;1.0;104.0;
78570;SPS30;67861;51.966;5.672;2023-12-20T11:08:55;7.4;6.8;5.3;3.4;;;;1.0;103.0;
78570;SPS30;67861;51.966;5.672;2023-12-20T11:11:37;7.7;7.0;5.5;3.5;;;;1.0;107.0;
78570;SPS30;67861;51.966;5.672;2023-12-20T11:14:14;7.0;6.4;5.1;3.4;;;;1.0;104.0;
78570;SPS30;67861;51.966;5.672;2023-12-20T11:16:48;6.2;5.6;4.5;2.9;;;;1.0;87.0;
78570;SPS30;67861;51.966;5.672;2023-12-20T11:19:17;6.2;5.7;4.5;3.0;;;;1.0;82.0;
78570;SPS30;67861;51.966;5.672;2023-12-20T11:21:46;7.2;6.6;5.2;3.4;;;;1.0;89.0;
78570;SPS30;67861;51.966;5.672;2023-12-20T11:24:15;6.5;5.9;4.6;2.9;;;;1.0;94.0;
78570;SPS30;67861;51.966;5.672;2023-12-20T11:26:48;7.9;7.2;5.6;3.6;;;;1.0;93.0;
78570;SPS30;67861;51.966;5.672;2023-12-20T11:29:32;6.4;5.8;4.6;3.0;;;;1.0;82.0;
78570;SPS30;67861;51.966;5.672;2023-12-20T11:32:03;7.3;6.7;5.2;3.3;;;;1.0;81.0;
78570;SPS30;67861;51.966;5.672;2023-12-20T11:34:57;6.1;5.5;4.3;2.7;;;;1.0;83.0;
78570;SPS30;67861;51.966;5.672;2023-12-20T11:37:30;7.3;6.6;5.1;3.1;;;;1.0;72.0;
78570;SPS30;67861;51.966;5.672;2023-12-20T11:40:02;6.4;5.7;4.4;2.6;;;;1.0;75.0;
78570;SPS30;67861;51.966;5.672;2023-12-20T11:42:35;6.2;5.6;4.3;2.5;;;;1.0;69.0;
78570;SPS30;67861;51.966;5.672;2023-12-20T11:45:10;7.5;6.7;5.2;3.2;;;;1.0;71.0;
78570;SPS30;67861;51.966;5.672;2023-12-20T11:47:41;6.3;5.7;4.4;2.6;;;;1.0;76.0;
78570;SPS30;67861;51.966;5.672;2023-12-20T11:50:11;7.2;6.5;5.1;3.2;;;;1.0;72.0;
78570;SPS30;67861;51.966;5.672;2023-12-20T11:52:40;6.1;5.5;4.3;2.7;;;;1.0;50.0;
78570;SPS30;67861;51.966;5.672;2023-12-20T11:55:08;5.5;5.0;3.8;2.3;;;;1.0;52.0;
78570;SPS30;67861;51.966;5.672;2023-12-20T11:57:37;4.6;4.2;3.3;2.1;;;;1.0;46.0;
78570;SPS30;67861;51.966;5.672;2023-12-20T12:00:06;6.8;6.2;4.7;2.9;;;;1.0;47.0;
78570;SPS30;67861;51.966;5.672;2023-12-20T12:02:35;6.8;6.1;4.7;2.9;;;;1.0;47.0;
78570;SPS30;67861;51.966;5.672;2023-12-20T12:05:04;7.6;6.8;5.2;3.1;;;;1.0;48.0;
78570;SPS30;67861;51.966;5.672;2023-12-20T12:07:33;6.5;5.8;4.4;2.6;;;;1.0;47.0;
78570;SPS30;67861;51.966;5.672;2023-12-20T12:10:02;6.4;5.7;4.3;2.5;;;;1.0;43.0;
78570;SPS30;67861;51.966;5.672;2023-12-20T12:12:31;6.2;5.6;4.3;2.5;;;;1.0;43.0;
78570;SPS30;67861;51.966;5.672;2023-12-20T12:15:00;6.5;5.9;4.5;2.8;;;;1.0;67.0;
78570;SPS30;67861;51.966;5.672;2023-12-20T12:17:29;6.7;6.1;4.7;2.9;;;;1.0;69.0;
78570;SPS30;67861;51.966;5.672;2023-12-20T12:20:03;7.2;6.5;5.0;3.0;;;;1.0;66.0;